sensor_id;sensor_type;location;lat;lon;timestamp;temperature;humidity
23147;DHT22;11742;53.532;-1.478;2023-09-12T00:01:57;23.30;81.00
23147;DHT22;11742;53.532;-1.478;2023-09-12T00:04:41;23.30;81.10
23147;DHT22;11742;53.532;-1.478;2023-09-12T00:07:25;23.30;81.10
23147;DHT22;11742;53.532;-1.478;2023-09-12T00:10:10;23.20;81.10
23147;DHT22;11742;53.532;-1.478;2023-09-12T00:12:54;23.20;81.10
23147;DHT22;11742;53.532;-1.478;2023-09-12T00:15:38;23.20;81.20
23147;DHT22;11742;53.532;-1.478;2023-09-12T00:18:23;23.20;81.20
23147;DHT22;11742;53.532;-1.478;2023-09-12T00:21:07;23.20;81.20
23147;DHT22;11742;53.532;-1.478;2023-09-12T00:23:52;23.20;81.40
23147;DHT22;11742;53.532;-1.478;2023-09-12T00:26:36;23.10;81.30
23147;DHT22;11742;53.532;-1.478;2023-09-12T00:29:20;23.10;81.30
23147;DHT22;11742;53.532;-1.478;2023-09-12T00:32:04;23.10;81.40
23147;DHT22;11742;53.532;-1.478;2023-09-12T00:34:49;23.10;81.40
23147;DHT22;11742;53.532;-1.478;2023-09-12T00:37:33;23.10;81.50
23147;DHT22;11742;53.532;-1.478;2023-09-12T00:40:17;23.00;81.50
23147;DHT22;11742;53.532;-1.478;2023-09-12T00:43:01;23.00;81.50
23147;DHT22;11742;53.532;-1.478;2023-09-12T00:45:46;23.00;82.40
23147;DHT22;11742;53.532;-1.478;2023-09-12T00:48:30;23.00;81.60
23147;DHT22;11742;53.532;-1.478;2023-09-12T00:51:17;23.00;81.50
23147;DHT22;11742;53.532;-1.478;2023-09-12T00:54:05;22.90;81.60
23147;DHT22;11742;53.532;-1.478;2023-09-12T00:56:49;22.90;81.60
23147;DHT22;11742;53.532;-1.478;2023-09-12T00:59:34;22.90;81.60
23147;DHT22;11742;53.532;-1.478;2023-09-12T01:02:19;22.90;81.70
23147;DHT22;11742;53.532;-1.478;2023-09-12T01:05:06;22.90;81.70
23147;DHT22;11742;53.532;-1.478;2023-09-12T01:07:51;22.90;81.70
23147;DHT22;11742;53.532;-1.478;2023-09-12T01:10:36;22.90;81.70
23147;DHT22;11742;53.532;-1.478;2023-09-12T01:13:21;22.80;81.70
23147;DHT22;11742;53.532;-1.478;2023-09-12T01:16:05;22.90;81.80
23147;DHT22;11742;53.532;-1.478;2023-09-12T01:18:49;22.80;81.80
23147;DHT22;11742;53.532;-1.478;2023-09-12T01:21:53;22.80;81.80
23147;DHT22;11742;53.532;-1.478;2023-09-12T01:27:52;22.80;81.90
23147;DHT22;11742;53.532;-1.478;2023-09-12T01:30:39;22.70;81.80
23147;DHT22;11742;53.532;-1.478;2023-09-12T01:33:26;22.70;81.90
23147;DHT22;11742;53.532;-1.478;2023-09-12T01:36:10;22.70;81.90
23147;DHT22;11742;53.532;-1.478;2023-09-12T01:38:54;22.70;81.90
23147;DHT22;11742;53.532;-1.478;2023-09-12T01:41:40;22.70;81.90
23147;DHT22;11742;53.532;-1.478;2023-09-12T01:44:28;22.70;81.90
23147;DHT22;11742;53.532;-1.478;2023-09-12T01:47:13;22.70;81.90
23147;DHT22;11742;53.532;-1.478;2023-09-12T01:49:59;22.70;81.90
23147;DHT22;11742;53.532;-1.478;2023-09-12T01:52:44;22.60;81.80
23147;DHT22;11742;53.532;-1.478;2023-09-12T01:55:28;22.60;81.80
23147;DHT22;11742;53.532;-1.478;2023-09-12T01:58:13;22.60;81.80
23147;DHT22;11742;53.532;-1.478;2023-09-12T02:00:58;22.60;81.80
23147;DHT22;11742;53.532;-1.478;2023-09-12T02:03:42;22.50;81.70
23147;DHT22;11742;53.532;-1.478;2023-09-12T02:06:26;22.50;81.70
23147;DHT22;11742;53.532;-1.478;2023-09-12T02:09:10;22.50;81.70
23147;DHT22;11742;53.532;-1.478;2023-09-12T02:11:55;22.50;81.70
23147;DHT22;11742;53.532;-1.478;2023-09-12T02:14:39;22.50;81.80
23147;DHT22;11742;53.532;-1.478;2023-09-12T02:17:23;22.50;81.70
23147;DHT22;11742;53.532;-1.478;2023-09-12T02:20:08;22.40;81.80
23147;DHT22;11742;53.532;-1.478;2023-09-12T02:22:53;22.40;81.80
23147;DHT22;11742;53.532;-1.478;2023-09-12T02:25:37;22.40;81.70
23147;DHT22;11742;53.532;-1.478;2023-09-12T02:28:21;22.40;81.80
23147;DHT22;11742;53.532;-1.478;2023-09-12T02:31:12;22.40;81.70
23147;DHT22;11742;53.532;-1.478;2023-09-12T02:33:57;22.40;81.60
23147;DHT22;11742;53.532;-1.478;2023-09-12T02:36:41;22.40;81.60
23147;DHT22;11742;53.532;-1.478;2023-09-12T02:39:25;22.30;81.60
23147;DHT22;11742;53.532;-1.478;2023-09-12T02:42:09;22.30;81.50
23147;DHT22;11742;53.532;-1.478;2023-09-12T02:44:54;22.30;81.30
23147;DHT22;11742;53.532;-1.478;2023-09-12T02:47:38;22.20;81.20
23147;DHT22;11742;53.532;-1.478;2023-09-12T02:50:23;22.20;81.40
23147;DHT22;11742;53.532;-1.478;2023-09-12T02:53:07;22.20;81.30
23147;DHT22;11742;53.532;-1.478;2023-09-12T02:55:51;22.20;81.30
23147;DHT22;11742;53.532;-1.478;2023-09-12T02:58:37;22.20;81.40
23147;DHT22;11742;53.532;-1.478;2023-09-12T03:01:21;22.20;81.40
23147;DHT22;11742;53.532;-1.478;2023-09-12T03:04:05;22.10;81.30
23147;DHT22;11742;53.532;-1.478;2023-09-12T03:06:49;22.10;81.40
23147;DHT22;11742;53.532;-1.478;2023-09-12T03:09:34;22.10;81.50
23147;DHT22;11742;53.532;-1.478;2023-09-12T03:12:18;22.10;81.50
23147;DHT22;11742;53.532;-1.478;2023-09-12T03:15:03;22.00;81.30
23147;DHT22;11742;53.532;-1.478;2023-09-12T03:17:48;22.00;81.30
23147;DHT22;11742;53.532;-1.478;2023-09-12T03:20:32;22.00;81.30
23147;DHT22;11742;53.532;-1.478;2023-09-12T03:23:16;22.00;81.30
23147;DHT22;11742;53.532;-1.478;2023-09-12T03:26:05;22.00;81.40
23147;DHT22;11742;53.532;-1.478;2023-09-12T03:28:50;22.00;81.30
23147;DHT22;11742;53.532;-1.478;2023-09-12T03:31:35;21.90;81.30
23147;DHT22;11742;53.532;-1.478;2023-09-12T03:34:20;21.90;81.30
23147;DHT22;11742;53.532;-1.478;2023-09-12T03:37:04;21.90;81.40
23147;DHT22;11742;53.532;-1.478;2023-09-12T03:39:48;21.80;81.40
23147;DHT22;11742;53.532;-1.478;2023-09-12T03:42:32;21.80;81.40
23147;DHT22;11742;53.532;-1.478;2023-09-12T03:45:16;21.80;81.40
23147;DHT22;11742;53.532;-1.478;2023-09-12T03:48:01;21.80;81.40
23147;DHT22;11742;53.532;-1.478;2023-09-12T03:50:46;21.70;81.40
23147;DHT22;11742;53.532;-1.478;2023-09-12T03:53:30;21.70;81.40
23147;DHT22;11742;53.532;-1.478;2023-09-12T03:56:14;21.70;81.40
23147;DHT22;11742;53.532;-1.478;2023-09-12T03:58:59;21.70;81.40
23147;DHT22;11742;53.532;-1.478;2023-09-12T04:01:44;21.70;81.50
23147;DHT22;11742;53.532;-1.478;2023-09-12T04:04:28;21.60;81.40
23147;DHT22;11742;53.532;-1.478;2023-09-12T04:07:13;21.60;81.40
23147;DHT22;11742;53.532;-1.478;2023-09-12T04:09:57;21.60;81.40
23147;DHT22;11742;53.532;-1.478;2023-09-12T04:12:41;21.60;81.40
23147;DHT22;11742;53.532;-1.478;2023-09-12T04:15:25;21.60;81.50
23147;DHT22;11742;53.532;-1.478;2023-09-12T04:18:09;21.50;81.40
23147;DHT22;11742;53.532;-1.478;2023-09-12T04:20:53;21.50;81.40
23147;DHT22;11742;53.532;-1.478;2023-09-12T04:23:41;21.50;81.40
23147;DHT22;11742;53.532;-1.478;2023-09-12T04:26:26;21.50;81.40
23147;DHT22;11742;53.532;-1.478;2023-09-12T04:29:10;21.50;81.40
23147;DHT22;11742;53.532;-1.478;2023-09-12T04:31:54;21.50;81.40
23147;DHT22;11742;53.532;-1.478;2023-09-12T04:34:43;21.40;81.40
23147;DHT22;11742;53.532;-1.478;2023-09-12T04:37:27;21.40;81.40
23147;DHT22;11742;53.532;-1.478;2023-09-12T04:40:11;21.40;81.40
23147;DHT22;11742;53.532;-1.478;2023-09-12T04:42:56;21.40;81.30
23147;DHT22;11742;53.532;-1.478;2023-09-12T04:45:40;21.30;81.40
23147;DHT22;11742;53.532;-1.478;2023-09-12T04:48:24;21.30;81.30
23147;DHT22;11742;53.532;-1.478;2023-09-12T04:51:09;21.30;81.40
23147;DHT22;11742;53.532;-1.478;2023-09-12T04:53:53;21.30;81.40
23147;DHT22;11742;53.532;-1.478;2023-09-12T04:56:38;21.30;81.50
23147;DHT22;11742;53.532;-1.478;2023-09-12T04:59:22;21.30;81.60
23147;DHT22;11742;53.532;-1.478;2023-09-12T05:02:06;21.20;81.30
23147;DHT22;11742;53.532;-1.478;2023-09-12T05:04:50;21.20;81.40
23147;DHT22;11742;53.532;-1.478;2023-09-12T05:07:35;21.20;81.40
23147;DHT22;11742;53.532;-1.478;2023-09-12T05:10:20;21.20;81.40
23147;DHT22;11742;53.532;-1.478;2023-09-12T05:13:04;21.10;81.30
23147;DHT22;11742;53.532;-1.478;2023-09-12T05:15:48;21.20;81.40
23147;DHT22;11742;53.532;-1.478;2023-09-12T05:18:32;21.10;81.30
23147;DHT22;11742;53.532;-1.478;2023-09-12T05:21:17;21.10;81.30
23147;DHT22;11742;53.532;-1.478;2023-09-12T05:24:00;21.10;81.30
23147;DHT22;11742;53.532;-1.478;2023-09-12T05:26:45;21.10;81.30
23147;DHT22;11742;53.532;-1.478;2023-09-12T05:29:31;21.10;81.30
23147;DHT22;11742;53.532;-1.478;2023-09-12T05:32:16;21.00;81.30
23147;DHT22;11742;53.532;-1.478;2023-09-12T05:35:01;21.00;81.30
23147;DHT22;11742;53.532;-1.478;2023-09-12T05:37:45;21.00;81.00
23147;DHT22;11742;53.532;-1.478;2023-09-12T05:40:29;21.00;81.00
23147;DHT22;11742;53.532;-1.478;2023-09-12T05:43:13;21.00;81.00
23147;DHT22;11742;53.532;-1.478;2023-09-12T05:45:57;21.00;81.10
23147;DHT22;11742;53.532;-1.478;2023-09-12T05:48:42;20.90;81.20
23147;DHT22;11742;53.532;-1.478;2023-09-12T05:51:26;20.90;81.30
23147;DHT22;11742;53.532;-1.478;2023-09-12T05:54:10;20.90;81.20
23147;DHT22;11742;53.532;-1.478;2023-09-12T05:56:57;20.90;81.30
23147;DHT22;11742;53.532;-1.478;2023-09-12T05:59:41;20.90;81.40
23147;DHT22;11742;53.532;-1.478;2023-09-12T06:02:26;20.80;81.40
23147;DHT22;11742;53.532;-1.478;2023-09-12T06:05:10;20.80;81.40
23147;DHT22;11742;53.532;-1.478;2023-09-12T06:07:54;20.80;81.30
23147;DHT22;11742;53.532;-1.478;2023-09-12T06:10:38;20.80;81.40
23147;DHT22;11742;53.532;-1.478;2023-09-12T06:13:23;20.80;81.50
23147;DHT22;11742;53.532;-1.478;2023-09-12T06:16:08;20.80;81.40
23147;DHT22;11742;53.532;-1.478;2023-09-12T06:18:52;20.70;81.40
23147;DHT22;11742;53.532;-1.478;2023-09-12T06:21:38;20.70;81.50
23147;DHT22;11742;53.532;-1.478;2023-09-12T06:24:22;20.70;81.50
23147;DHT22;11742;53.532;-1.478;2023-09-12T06:27:07;20.70;81.60
23147;DHT22;11742;53.532;-1.478;2023-09-12T06:29:52;20.70;81.50
23147;DHT22;11742;53.532;-1.478;2023-09-12T06:32:36;20.70;81.60
23147;DHT22;11742;53.532;-1.478;2023-09-12T06:35:20;20.60;81.60
23147;DHT22;11742;53.532;-1.478;2023-09-12T06:38:04;20.60;81.60
23147;DHT22;11742;53.532;-1.478;2023-09-12T06:40:48;20.60;81.60
23147;DHT22;11742;53.532;-1.478;2023-09-12T06:43:32;20.60;81.60
23147;DHT22;11742;53.532;-1.478;2023-09-12T06:46:16;20.60;81.70
23147;DHT22;11742;53.532;-1.478;2023-09-12T06:49:02;20.60;81.70
23147;DHT22;11742;53.532;-1.478;2023-09-12T06:51:47;20.60;81.70
23147;DHT22;11742;53.532;-1.478;2023-09-12T06:54:32;20.50;81.70
23147;DHT22;11742;53.532;-1.478;2023-09-12T06:57:17;20.50;81.60
23147;DHT22;11742;53.532;-1.478;2023-09-12T07:00:01;20.50;81.60
23147;DHT22;11742;53.532;-1.478;2023-09-12T07:02:50;20.50;81.70
23147;DHT22;11742;53.532;-1.478;2023-09-12T07:05:36;20.50;81.70
23147;DHT22;11742;53.532;-1.478;2023-09-12T07:08:21;20.50;81.70
23147;DHT22;11742;53.532;-1.478;2023-09-12T07:11:06;20.50;81.80
23147;DHT22;11742;53.532;-1.478;2023-09-12T07:13:50;20.50;81.80
23147;DHT22;11742;53.532;-1.478;2023-09-12T07:16:34;20.50;81.80
23147;DHT22;11742;53.532;-1.478;2023-09-12T07:19:18;20.40;81.70
23147;DHT22;11742;53.532;-1.478;2023-09-12T07:22:03;20.40;81.80
23147;DHT22;11742;53.532;-1.478;2023-09-12T07:24:47;20.40;81.70
23147;DHT22;11742;53.532;-1.478;2023-09-12T07:27:31;20.40;81.60
23147;DHT22;11742;53.532;-1.478;2023-09-12T07:30:17;20.40;81.50
23147;DHT22;11742;53.532;-1.478;2023-09-12T07:33:03;20.40;81.50
23147;DHT22;11742;53.532;-1.478;2023-09-12T07:35:48;20.40;81.50
23147;DHT22;11742;53.532;-1.478;2023-09-12T07:38:33;20.40;81.40
23147;DHT22;11742;53.532;-1.478;2023-09-12T07:41:19;20.30;81.40
23147;DHT22;11742;53.532;-1.478;2023-09-12T07:44:03;20.40;81.40
23147;DHT22;11742;53.532;-1.478;2023-09-12T07:46:48;20.30;81.30
23147;DHT22;11742;53.532;-1.478;2023-09-12T07:49:33;20.30;81.40
23147;DHT22;11742;53.532;-1.478;2023-09-12T07:52:17;20.30;81.40
23147;DHT22;11742;53.532;-1.478;2023-09-12T07:55:06;20.30;81.50
23147;DHT22;11742;53.532;-1.478;2023-09-12T07:57:51;20.30;81.50
23147;DHT22;11742;53.532;-1.478;2023-09-12T08:00:36;20.30;81.30
23147;DHT22;11742;53.532;-1.478;2023-09-12T08:03:21;20.30;81.30
23147;DHT22;11742;53.532;-1.478;2023-09-12T08:06:05;20.30;81.20
23147;DHT22;11742;53.532;-1.478;2023-09-12T08:08:49;20.30;81.20
23147;DHT22;11742;53.532;-1.478;2023-09-12T08:11:33;20.30;81.20
23147;DHT22;11742;53.532;-1.478;2023-09-12T08:14:17;20.30;81.20
23147;DHT22;11742;53.532;-1.478;2023-09-12T08:17:04;20.30;81.10
23147;DHT22;11742;53.532;-1.478;2023-09-12T08:19:48;20.30;81.10
23147;DHT22;11742;53.532;-1.478;2023-09-12T08:22:33;20.30;81.10
23147;DHT22;11742;53.532;-1.478;2023-09-12T08:25:17;20.30;81.10
23147;DHT22;11742;53.532;-1.478;2023-09-12T08:28:02;20.30;81.10
23147;DHT22;11742;53.532;-1.478;2023-09-12T08:30:47;20.20;81.00
23147;DHT22;11742;53.532;-1.478;2023-09-12T08:33:31;20.30;81.00
23147;DHT22;11742;53.532;-1.478;2023-09-12T08:36:15;20.20;80.90
23147;DHT22;11742;53.532;-1.478;2023-09-12T08:38:59;20.20;80.90
23147;DHT22;11742;53.532;-1.478;2023-09-12T08:41:45;20.20;80.90
23147;DHT22;11742;53.532;-1.478;2023-09-12T08:44:32;20.20;80.90
23147;DHT22;11742;53.532;-1.478;2023-09-12T08:47:18;20.20;80.90
23147;DHT22;11742;53.532;-1.478;2023-09-12T08:50:04;20.20;80.90
23147;DHT22;11742;53.532;-1.478;2023-09-12T08:52:49;20.20;80.90
23147;DHT22;11742;53.532;-1.478;2023-09-12T08:55:35;20.20;80.90
23147;DHT22;11742;53.532;-1.478;2023-09-12T08:58:20;20.20;80.90
23147;DHT22;11742;53.532;-1.478;2023-09-12T09:01:06;20.20;80.90
23147;DHT22;11742;53.532;-1.478;2023-09-12T09:03:52;20.20;80.90
23147;DHT22;11742;53.532;-1.478;2023-09-12T09:06:36;20.20;80.90
23147;DHT22;11742;53.532;-1.478;2023-09-12T09:09:22;20.20;80.90
23147;DHT22;11742;53.532;-1.478;2023-09-12T09:12:09;20.20;80.90
23147;DHT22;11742;53.532;-1.478;2023-09-12T09:14:54;20.20;80.90
23147;DHT22;11742;53.532;-1.478;2023-09-12T09:17:39;20.20;81.00
23147;DHT22;11742;53.532;-1.478;2023-09-12T09:23:09;20.20;80.90
23147;DHT22;11742;53.532;-1.478;2023-09-12T09:25:53;20.20;81.00
23147;DHT22;11742;53.532;-1.478;2023-09-12T09:28:38;20.20;81.00
23147;DHT22;11742;53.532;-1.478;2023-09-12T09:31:23;20.20;81.00
23147;DHT22;11742;53.532;-1.478;2023-09-12T09:34:14;20.20;80.90
23147;DHT22;11742;53.532;-1.478;2023-09-12T09:37:02;20.20;81.10
23147;DHT22;11742;53.532;-1.478;2023-09-12T09:39:48;20.20;81.10
23147;DHT22;11742;53.532;-1.478;2023-09-12T09:42:37;20.20;81.00
23147;DHT22;11742;53.532;-1.478;2023-09-12T09:45:21;20.20;81.10
23147;DHT22;11742;53.532;-1.478;2023-09-12T09:48:06;20.20;81.10
23147;DHT22;11742;53.532;-1.478;2023-09-12T09:50:51;20.20;81.00
23147;DHT22;11742;53.532;-1.478;2023-09-12T09:53:36;20.20;81.00
23147;DHT22;11742;53.532;-1.478;2023-09-12T09:56:23;20.20;81.10
23147;DHT22;11742;53.532;-1.478;2023-09-12T09:59:07;20.20;81.00
23147;DHT22;11742;53.532;-1.478;2023-09-12T10:01:59;20.20;81.10
23147;DHT22;11742;53.532;-1.478;2023-09-12T10:04:44;20.30;81.20
23147;DHT22;11742;53.532;-1.478;2023-09-12T10:07:32;20.20;81.10
23147;DHT22;11742;53.532;-1.478;2023-09-12T10:10:18;20.20;81.10
23147;DHT22;11742;53.532;-1.478;2023-09-12T10:13:03;20.20;81.10
23147;DHT22;11742;53.532;-1.478;2023-09-12T10:15:49;20.20;81.00
23147;DHT22;11742;53.532;-1.478;2023-09-12T10:18:40;20.20;81.10
23147;DHT22;11742;53.532;-1.478;2023-09-12T10:21:29;20.20;81.10
23147;DHT22;11742;53.532;-1.478;2023-09-12T10:24:17;20.20;81.10
23147;DHT22;11742;53.532;-1.478;2023-09-12T10:27:03;20.20;81.10
23147;DHT22;11742;53.532;-1.478;2023-09-12T10:29:48;20.20;81.10
23147;DHT22;11742;53.532;-1.478;2023-09-12T10:32:36;20.20;81.10
23147;DHT22;11742;53.532;-1.478;2023-09-12T10:35:21;20.20;81.20
23147;DHT22;11742;53.532;-1.478;2023-09-12T10:38:07;20.20;81.10
23147;DHT22;11742;53.532;-1.478;2023-09-12T10:40:53;20.20;81.20
23147;DHT22;11742;53.532;-1.478;2023-09-12T10:43:38;20.20;81.10
23147;DHT22;11742;53.532;-1.478;2023-09-12T10:46:24;20.20;81.10
23147;DHT22;11742;53.532;-1.478;2023-09-12T10:49:13;20.20;81.20
23147;DHT22;11742;53.532;-1.478;2023-09-12T10:51:58;20.20;81.40
23147;DHT22;11742;53.532;-1.478;2023-09-12T10:54:44;20.20;81.20
23147;DHT22;11742;53.532;-1.478;2023-09-12T10:57:28;20.20;81.20
23147;DHT22;11742;53.532;-1.478;2023-09-12T11:00:13;20.20;81.10
23147;DHT22;11742;53.532;-1.478;2023-09-12T11:02:58;20.20;81.30
23147;DHT22;11742;53.532;-1.478;2023-09-12T11:05:53;20.20;81.20
23147;DHT22;11742;53.532;-1.478;2023-09-12T11:08:39;20.20;81.40
23147;DHT22;11742;53.532;-1.478;2023-09-12T11:11:24;20.20;81.30
23147;DHT22;11742;53.532;-1.478;2023-09-12T11:14:08;20.20;81.30
23147;DHT22;11742;53.532;-1.478;2023-09-12T11:19:52;20.20;81.50
23147;DHT22;11742;53.532;-1.478;2023-09-12T11:22:47;20.20;81.30
23147;DHT22;11742;53.532;-1.478;2023-09-12T11:25:31;20.20;81.50
23147;DHT22;11742;53.532;-1.478;2023-09-12T11:28:19;20.20;81.30
23147;DHT22;11742;53.532;-1.478;2023-09-12T11:31:04;20.20;81.40
23147;DHT22;11742;53.532;-1.478;2023-09-12T11:33:48;20.20;81.30
23147;DHT22;11742;53.532;-1.478;2023-09-12T11:36:39;20.30;81.40
23147;DHT22;11742;53.532;-1.478;2023-09-12T11:39:28;20.30;81.50
23147;DHT22;11742;53.532;-1.478;2023-09-12T11:42:12;20.30;81.40
23147;DHT22;11742;53.532;-1.478;2023-09-12T11:44:58;20.30;81.40
23147;DHT22;11742;53.532;-1.478;2023-09-12T11:47:44;20.30;81.40
23147;DHT22;11742;53.532;-1.478;2023-09-12T11:50:33;20.30;81.40
23147;DHT22;11742;53.532;-1.478;2023-09-12T11:53:21;20.30;81.40
23147;DHT22;11742;53.532;-1.478;2023-09-12T11:56:06;20.30;81.40
23147;DHT22;11742;53.532;-1.478;2023-09-12T11:58:53;20.30;81.30
23147;DHT22;11742;53.532;-1.478;2023-09-12T12:01:37;20.30;81.40
23147;DHT22;11742;53.532;-1.478;2023-09-12T12:04:25;20.30;81.40
23147;DHT22;11742;53.532;-1.478;2023-09-12T12:07:10;20.30;81.40
23147;DHT22;11742;53.532;-1.478;2023-09-12T12:09:55;20.30;81.40
23147;DHT22;11742;53.532;-1.478;2023-09-12T12:12:39;20.30;81.40
23147;DHT22;11742;53.532;-1.478;2023-09-12T12:15:24;20.30;81.40
23147;DHT22;11742;53.532;-1.478;2023-09-12T12:18:09;20.30;81.50
23147;DHT22;11742;53.532;-1.478;2023-09-12T12:20:54;20.30;81.50
23147;DHT22;11742;53.532;-1.478;2023-09-12T12:23:39;20.30;81.50
23147;DHT22;11742;53.532;-1.478;2023-09-12T12:26:24;20.30;81.50
23147;DHT22;11742;53.532;-1.478;2023-09-12T12:29:10;20.30;81.60
23147;DHT22;11742;53.532;-1.478;2023-09-12T12:31:59;20.30;81.50
23147;DHT22;11742;53.532;-1.478;2023-09-12T12:34:48;20.40;81.70
23147;DHT22;11742;53.532;-1.478;2023-09-12T12:37:32;20.30;81.60
23147;DHT22;11742;53.532;-1.478;2023-09-12T12:40:18;20.40;81.60
23147;DHT22;11742;53.532;-1.478;2023-09-12T12:43:02;20.40;81.70
23147;DHT22;11742;53.532;-1.478;2023-09-12T12:45:58;20.40;81.70
23147;DHT22;11742;53.532;-1.478;2023-09-12T12:48:45;20.40;81.80
23147;DHT22;11742;53.532;-1.478;2023-09-12T12:51:31;20.50;81.80
23147;DHT22;11742;53.532;-1.478;2023-09-12T12:54:15;20.50;81.70
23147;DHT22;11742;53.532;-1.478;2023-09-12T12:57:00;20.50;81.60
23147;DHT22;11742;53.532;-1.478;2023-09-12T12:59:49;20.50;81.60
23147;DHT22;11742;53.532;-1.478;2023-09-12T13:02:34;20.50;81.60
23147;DHT22;11742;53.532;-1.478;2023-09-12T13:05:25;20.50;81.60
23147;DHT22;11742;53.532;-1.478;2023-09-12T13:08:10;20.50;81.60
23147;DHT22;11742;53.532;-1.478;2023-09-12T13:10:54;20.50;81.50
23147;DHT22;11742;53.532;-1.478;2023-09-12T13:13:41;20.50;81.60
23147;DHT22;11742;53.532;-1.478;2023-09-12T13:16:25;20.50;81.60
23147;DHT22;11742;53.532;-1.478;2023-09-12T13:19:10;20.50;81.50
23147;DHT22;11742;53.532;-1.478;2023-09-12T13:21:57;20.50;81.50
23147;DHT22;11742;53.532;-1.478;2023-09-12T13:24:41;20.50;81.50
23147;DHT22;11742;53.532;-1.478;2023-09-12T13:27:25;20.50;81.50
23147;DHT22;11742;53.532;-1.478;2023-09-12T13:30:10;20.50;81.50
23147;DHT22;11742;53.532;-1.478;2023-09-12T13:32:54;20.50;81.50
23147;DHT22;11742;53.532;-1.478;2023-09-12T13:35:40;20.40;81.40
23147;DHT22;11742;53.532;-1.478;2023-09-12T13:38:24;20.50;81.60
23147;DHT22;11742;53.532;-1.478;2023-09-12T13:41:09;20.50;81.50
23147;DHT22;11742;53.532;-1.478;2023-09-12T13:43:53;20.50;81.50
23147;DHT22;11742;53.532;-1.478;2023-09-12T13:46:37;20.40;81.40
23147;DHT22;11742;53.532;-1.478;2023-09-12T13:49:22;20.50;81.40
23147;DHT22;11742;53.532;-1.478;2023-09-12T13:52:06;20.50;81.40
23147;DHT22;11742;53.532;-1.478;2023-09-12T13:54:50;20.50;81.40
23147;DHT22;11742;53.532;-1.478;2023-09-12T13:57:34;20.50;81.40
23147;DHT22;11742;53.532;-1.478;2023-09-12T14:00:18;20.50;81.40
23147;DHT22;11742;53.532;-1.478;2023-09-12T14:03:03;20.40;81.30
23147;DHT22;11742;53.532;-1.478;2023-09-12T14:05:47;20.50;81.40
23147;DHT22;11742;53.532;-1.478;2023-09-12T14:08:32;20.40;81.30
23147;DHT22;11742;53.532;-1.478;2023-09-12T14:11:16;20.50;81.40
23147;DHT22;11742;53.532;-1.478;2023-09-12T14:14:01;20.40;81.40
23147;DHT22;11742;53.532;-1.478;2023-09-12T14:16:46;20.40;81.40
23147;DHT22;11742;53.532;-1.478;2023-09-12T14:19:30;20.40;81.50
23147;DHT22;11742;53.532;-1.478;2023-09-12T14:22:15;20.40;81.50
23147;DHT22;11742;53.532;-1.478;2023-09-12T14:24:59;20.40;81.50
23147;DHT22;11742;53.532;-1.478;2023-09-12T14:27:44;20.40;81.50
23147;DHT22;11742;53.532;-1.478;2023-09-12T14:30:28;20.40;81.50
23147;DHT22;11742;53.532;-1.478;2023-09-12T14:33:19;20.40;81.60
23147;DHT22;11742;53.532;-1.478;2023-09-12T14:36:03;20.40;81.60
23147;DHT22;11742;53.532;-1.478;2023-09-12T14:38:48;20.40;81.60
23147;DHT22;11742;53.532;-1.478;2023-09-12T14:41:32;20.40;81.50
23147;DHT22;11742;53.532;-1.478;2023-09-12T14:44:16;20.40;81.60
23147;DHT22;11742;53.532;-1.478;2023-09-12T14:47:00;20.40;81.60
23147;DHT22;11742;53.532;-1.478;2023-09-12T14:49:44;20.40;81.50
23147;DHT22;11742;53.532;-1.478;2023-09-12T14:52:29;20.40;81.50
23147;DHT22;11742;53.532;-1.478;2023-09-12T14:55:13;20.40;81.50
23147;DHT22;11742;53.532;-1.478;2023-09-12T14:57:58;20.40;81.60
23147;DHT22;11742;53.532;-1.478;2023-09-12T15:00:42;20.40;81.60
23147;DHT22;11742;53.532;-1.478;2023-09-12T15:03:28;20.40;81.60
23147;DHT22;11742;53.532;-1.478;2023-09-12T15:06:13;20.40;81.60
23147;DHT22;11742;53.532;-1.478;2023-09-12T15:08:57;20.40;81.60
23147;DHT22;11742;53.532;-1.478;2023-09-12T15:11:41;20.40;81.70
23147;DHT22;11742;53.532;-1.478;2023-09-12T15:14:25;20.40;81.70
23147;DHT22;11742;53.532;-1.478;2023-09-12T15:17:10;20.40;81.70
23147;DHT22;11742;53.532;-1.478;2023-09-12T15:19:54;20.40;81.70
23147;DHT22;11742;53.532;-1.478;2023-09-12T15:22:39;20.40;81.70
23147;DHT22;11742;53.532;-1.478;2023-09-12T15:25:27;20.40;81.70
23147;DHT22;11742;53.532;-1.478;2023-09-12T15:28:12;20.40;81.70
23147;DHT22;11742;53.532;-1.478;2023-09-12T15:30:56;20.40;81.70
23147;DHT22;11742;53.532;-1.478;2023-09-12T15:33:40;20.40;81.60
23147;DHT22;11742;53.532;-1.478;2023-09-12T15:36:25;20.30;81.50
23147;DHT22;11742;53.532;-1.478;2023-09-12T15:39:09;20.40;81.60
23147;DHT22;11742;53.532;-1.478;2023-09-12T15:41:54;20.30;81.50
23147;DHT22;11742;53.532;-1.478;2023-09-12T15:44:38;20.40;81.70
23147;DHT22;11742;53.532;-1.478;2023-09-12T15:47:22;20.30;81.60
23147;DHT22;11742;53.532;-1.478;2023-09-12T15:50:07;20.30;81.60
23147;DHT22;11742;53.532;-1.478;2023-09-12T15:52:51;20.30;81.60
23147;DHT22;11742;53.532;-1.478;2023-09-12T15:55:35;20.30;81.60
23147;DHT22;11742;53.532;-1.478;2023-09-12T15:58:19;20.30;81.50
23147;DHT22;11742;53.532;-1.478;2023-09-12T16:01:04;20.30;81.50
23147;DHT22;11742;53.532;-1.478;2023-09-12T16:03:48;20.30;81.50
23147;DHT22;11742;53.532;-1.478;2023-09-12T16:06:32;20.30;81.50
23147;DHT22;11742;53.532;-1.478;2023-09-12T16:09:17;20.30;81.50
23147;DHT22;11742;53.532;-1.478;2023-09-12T16:12:01;20.30;81.50
23147;DHT22;11742;53.532;-1.478;2023-09-12T16:14:45;20.30;81.40
23147;DHT22;11742;53.532;-1.478;2023-09-12T16:17:29;20.20;81.30
23147;DHT22;11742;53.532;-1.478;2023-09-12T16:20:13;20.20;81.40
23147;DHT22;11742;53.532;-1.478;2023-09-12T16:22:58;20.20;81.40
23147;DHT22;11742;53.532;-1.478;2023-09-12T16:25:42;20.20;81.30
23147;DHT22;11742;53.532;-1.478;2023-09-12T16:28:27;20.20;81.40
23147;DHT22;11742;53.532;-1.478;2023-09-12T16:31:11;20.20;81.40
23147;DHT22;11742;53.532;-1.478;2023-09-12T16:33:55;20.20;81.50
23147;DHT22;11742;53.532;-1.478;2023-09-12T16:36:39;20.20;81.50
23147;DHT22;11742;53.532;-1.478;2023-09-12T16:39:23;20.20;81.50
23147;DHT22;11742;53.532;-1.478;2023-09-12T16:42:08;20.10;81.40
23147;DHT22;11742;53.532;-1.478;2023-09-12T16:44:53;20.10;81.40
23147;DHT22;11742;53.532;-1.478;2023-09-12T16:47:38;20.10;81.50
23147;DHT22;11742;53.532;-1.478;2023-09-12T16:50:24;20.10;81.50
23147;DHT22;11742;53.532;-1.478;2023-09-12T16:53:09;20.10;81.50
23147;DHT22;11742;53.532;-1.478;2023-09-12T16:55:53;20.10;81.50
23147;DHT22;11742;53.532;-1.478;2023-09-12T16:58:37;20.10;81.40
23147;DHT22;11742;53.532;-1.478;2023-09-12T17:01:21;20.10;81.40
23147;DHT22;11742;53.532;-1.478;2023-09-12T17:04:06;20.10;81.40
23147;DHT22;11742;53.532;-1.478;2023-09-12T17:06:50;20.10;81.40
23147;DHT22;11742;53.532;-1.478;2023-09-12T17:09:35;20.10;81.40
23147;DHT22;11742;53.532;-1.478;2023-09-12T17:12:19;20.10;81.50
23147;DHT22;11742;53.532;-1.478;2023-09-12T17:15:04;20.00;81.40